sensor_id;sensor_type;location;lat;lon;timestamp;temperature;humidity
9486;DHT22;4781;48.776;9.200;2023-06-14T00:00:18;15.70;72.10
9486;DHT22;4781;48.776;9.200;2023-06-14T00:02:47;15.70;72.60
9486;DHT22;4781;48.776;9.200;2023-06-14T00:05:16;15.70;72.60
9486;DHT22;4781;48.776;9.200;2023-06-14T00:07:44;15.60;73.00
9486;DHT22;4781;48.776;9.200;2023-06-14T00:10:14;15.60;73.10
9486;DHT22;4781;48.776;9.200;2023-06-14T00:12:43;15.60;73.00
9486;DHT22;4781;48.776;9.200;2023-06-14T00:15:11;15.60;72.40
9486;DHT22;4781;48.776;9.200;2023-06-14T00:17:39;15.50;72.60
9486;DHT22;4781;48.776;9.200;2023-06-14T00:20:09;15.60;73.00
9486;DHT22;4781;48.776;9.200;2023-06-14T00:22:38;15.50;73.70
9486;DHT22;4781;48.776;9.200;2023-06-14T00:25:06;15.50;73.50
9486;DHT22;4781;48.776;9.200;2023-06-14T00:27:38;15.50;74.10
9486;DHT22;4781;48.776;9.200;2023-06-14T00:30:07;15.40;73.70
9486;DHT22;4781;48.776;9.200;2023-06-14T00:32:36;15.30;74.00
9486;DHT22;4781;48.776;9.200;2023-06-14T00:35:05;15.20;74.90
9486;DHT22;4781;48.776;9.200;2023-06-14T00:37:34;15.10;75.20
9486;DHT22;4781;48.776;9.200;2023-06-14T00:40:03;15.10;74.70
9486;DHT22;4781;48.776;9.200;2023-06-14T00:42:33;15.10;76.00
9486;DHT22;4781;48.776;9.200;2023-06-14T00:45:02;14.90;76.20
9486;DHT22;4781;48.776;9.200;2023-06-14T00:47:31;14.90;76.70
9486;DHT22;4781;48.776;9.200;2023-06-14T00:50:00;14.80;77.00
9486;DHT22;4781;48.776;9.200;2023-06-14T00:52:29;14.80;76.70
9486;DHT22;4781;48.776;9.200;2023-06-14T00:54:59;14.80;77.20
9486;DHT22;4781;48.776;9.200;2023-06-14T00:57:27;14.80;76.10
9486;DHT22;4781;48.776;9.200;2023-06-14T00:59:59;14.80;77.50
9486;DHT22;4781;48.776;9.200;2023-06-14T01:02:28;14.70;76.60
9486;DHT22;4781;48.776;9.200;2023-06-14T01:04:57;14.80;77.20
9486;DHT22;4781;48.776;9.200;2023-06-14T01:10:47;14.70;76.80
9486;DHT22;4781;48.776;9.200;2023-06-14T01:13:38;14.60;76.90
9486;DHT22;4781;48.776;9.200;2023-06-14T01:16:08;14.60;76.20
9486;DHT22;4781;48.776;9.200;2023-06-14T01:18:38;14.60;76.40
9486;DHT22;4781;48.776;9.200;2023-06-14T01:21:22;14.50;76.60
9486;DHT22;4781;48.776;9.200;2023-06-14T01:23:51;14.50;77.40
9486;DHT22;4781;48.776;9.200;2023-06-14T01:26:21;14.40;78.50
9486;DHT22;4781;48.776;9.200;2023-06-14T01:28:51;14.30;78.40
9486;DHT22;4781;48.776;9.200;2023-06-14T01:31:23;14.20;78.90
9486;DHT22;4781;48.776;9.200;2023-06-14T01:33:52;14.20;79.40
9486;DHT22;4781;48.776;9.200;2023-06-14T01:36:21;14.20;79.10
9486;DHT22;4781;48.776;9.200;2023-06-14T01:38:51;14.20;79.40
9486;DHT22;4781;48.776;9.200;2023-06-14T01:41:21;14.10;80.20
9486;DHT22;4781;48.776;9.200;2023-06-14T01:43:51;14.00;80.00
9486;DHT22;4781;48.776;9.200;2023-06-14T01:46:20;14.00;80.60
9486;DHT22;4781;48.776;9.200;2023-06-14T01:51:38;14.00;79.70
9486;DHT22;4781;48.776;9.200;2023-06-14T01:54:07;13.90;80.30
9486;DHT22;4781;48.776;9.200;2023-06-14T01:56:35;13.80;81.30
9486;DHT22;4781;48.776;9.200;2023-06-14T01:59:03;13.80;81.50
9486;DHT22;4781;48.776;9.200;2023-06-14T02:01:32;13.80;80.70
9486;DHT22;4781;48.776;9.200;2023-06-14T02:04:01;13.70;81.70
9486;DHT22;4781;48.776;9.200;2023-06-14T02:06:29;13.80;80.80
9486;DHT22;4781;48.776;9.200;2023-06-14T02:08:57;13.70;82.40
9486;DHT22;4781;48.776;9.200;2023-06-14T02:11:26;13.70;82.50
9486;DHT22;4781;48.776;9.200;2023-06-14T02:13:55;13.70;81.90
9486;DHT22;4781;48.776;9.200;2023-06-14T02:16:25;13.60;82.40
9486;DHT22;4781;48.776;9.200;2023-06-14T02:18:55;13.70;82.50
9486;DHT22;4781;48.776;9.200;2023-06-14T02:21:23;13.60;81.70
9486;DHT22;4781;48.776;9.200;2023-06-14T02:23:51;13.60;82.10
9486;DHT22;4781;48.776;9.200;2023-06-14T02:26:20;13.50;82.30
9486;DHT22;4781;48.776;9.200;2023-06-14T02:28:50;13.40;82.80
9486;DHT22;4781;48.776;9.200;2023-06-14T02:31:18;13.40;83.50
9486;DHT22;4781;48.776;9.200;2023-06-14T02:33:47;13.40;83.70
9486;DHT22;4781;48.776;9.200;2023-06-14T02:36:15;13.30;84.10
9486;DHT22;4781;48.776;9.200;2023-06-14T02:38:43;13.30;84.00
9486;DHT22;4781;48.776;9.200;2023-06-14T02:41:13;13.30;84.50
9486;DHT22;4781;48.776;9.200;2023-06-14T02:43:42;13.30;83.80
9486;DHT22;4781;48.776;9.200;2023-06-14T02:46:10;13.30;85.00
9486;DHT22;4781;48.776;9.200;2023-06-14T02:48:39;13.30;85.00
9486;DHT22;4781;48.776;9.200;2023-06-14T02:51:07;13.30;85.00
9486;DHT22;4781;48.776;9.200;2023-06-14T02:53:36;13.30;85.20
9486;DHT22;4781;48.776;9.200;2023-06-14T02:56:05;13.30;84.90
9486;DHT22;4781;48.776;9.200;2023-06-14T02:58:33;13.20;84.70
9486;DHT22;4781;48.776;9.200;2023-06-14T03:01:01;13.20;85.00
9486;DHT22;4781;48.776;9.200;2023-06-14T03:03:30;13.30;84.10
9486;DHT22;4781;48.776;9.200;2023-06-14T03:05:59;13.20;84.20
9486;DHT22;4781;48.776;9.200;2023-06-14T03:08:29;13.20;84.20
9486;DHT22;4781;48.776;9.200;2023-06-14T03:11:00;13.10;85.10
9486;DHT22;4781;48.776;9.200;2023-06-14T03:13:29;13.10;84.20
9486;DHT22;4781;48.776;9.200;2023-06-14T03:15:58;13.10;84.30
9486;DHT22;4781;48.776;9.200;2023-06-14T03:18:30;13.10;85.70
9486;DHT22;4781;48.776;9.200;2023-06-14T03:21:01;13.00;86.20
9486;DHT22;4781;48.776;9.200;2023-06-14T03:23:29;12.90;86.10
9486;DHT22;4781;48.776;9.200;2023-06-14T03:25:58;12.90;86.60
9486;DHT22;4781;48.776;9.200;2023-06-14T03:28:26;12.90;86.50
9486;DHT22;4781;48.776;9.200;2023-06-14T03:30:55;12.90;87.30
9486;DHT22;4781;48.776;9.200;2023-06-14T03:33:23;12.80;86.70
9486;DHT22;4781;48.776;9.200;2023-06-14T03:35:52;12.80;86.80
9486;DHT22;4781;48.776;9.200;2023-06-14T03:38:20;12.80;86.00
9486;DHT22;4781;48.776;9.200;2023-06-14T03:40:49;12.80;86.60
9486;DHT22;4781;48.776;9.200;2023-06-14T03:43:17;12.90;86.00
9486;DHT22;4781;48.776;9.200;2023-06-14T03:45:45;12.90;86.30
9486;DHT22;4781;48.776;9.200;2023-06-14T03:48:14;12.90;87.10
9486;DHT22;4781;48.776;9.200;2023-06-14T03:50:42;12.90;87.30
9486;DHT22;4781;48.776;9.200;2023-06-14T03:53:11;12.90;87.10
9486;DHT22;4781;48.776;9.200;2023-06-14T03:55:39;12.90;86.90
9486;DHT22;4781;48.776;9.200;2023-06-14T03:58:08;12.90;87.20
9486;DHT22;4781;48.776;9.200;2023-06-14T04:00:37;12.90;86.60
9486;DHT22;4781;48.776;9.200;2023-06-14T04:03:06;13.00;87.00
9486;DHT22;4781;48.776;9.200;2023-06-14T04:05:34;13.00;88.10
9486;DHT22;4781;48.776;9.200;2023-06-14T04:08:03;13.00;87.80
9486;DHT22;4781;48.776;9.200;2023-06-14T04:10:34;13.00;87.80
9486;DHT22;4781;48.776;9.200;2023-06-14T04:13:02;13.00;88.10
9486;DHT22;4781;48.776;9.200;2023-06-14T04:15:31;13.20;87.40
9486;DHT22;4781;48.776;9.200;2023-06-14T04:18:00;13.10;88.90
9486;DHT22;4781;48.776;9.200;2023-06-14T04:20:28;13.20;89.10
9486;DHT22;4781;48.776;9.200;2023-06-14T04:22:57;13.20;89.60
9486;DHT22;4781;48.776;9.200;2023-06-14T04:25:27;13.30;87.20
9486;DHT22;4781;48.776;9.200;2023-06-14T04:27:57;13.40;87.80
9486;DHT22;4781;48.776;9.200;2023-06-14T04:30:26;13.50;87.10
9486;DHT22;4781;48.776;9.200;2023-06-14T04:32:56;13.60;86.60
9486;DHT22;4781;48.776;9.200;2023-06-14T04:35:25;13.70;87.40
9486;DHT22;4781;48.776;9.200;2023-06-14T04:37:55;13.80;85.50
9486;DHT22;4781;48.776;9.200;2023-06-14T04:40:24;13.90;84.50
9486;DHT22;4781;48.776;9.200;2023-06-14T04:42:52;14.10;85.00
9486;DHT22;4781;48.776;9.200;2023-06-14T04:45:21;14.20;83.40
9486;DHT22;4781;48.776;9.200;2023-06-14T04:47:50;14.30;82.50
9486;DHT22;4781;48.776;9.200;2023-06-14T04:50:20;14.30;83.10
9486;DHT22;4781;48.776;9.200;2023-06-14T04:52:49;14.40;82.60
9486;DHT22;4781;48.776;9.200;2023-06-14T04:55:18;14.50;83.00
9486;DHT22;4781;48.776;9.200;2023-06-14T04:57:46;14.50;82.90
9486;DHT22;4781;48.776;9.200;2023-06-14T05:00:15;14.50;83.70
9486;DHT22;4781;48.776;9.200;2023-06-14T05:02:44;14.50;84.30
9486;DHT22;4781;48.776;9.200;2023-06-14T05:05:13;14.60;84.20
9486;DHT22;4781;48.776;9.200;2023-06-14T05:07:42;14.70;84.40
9486;DHT22;4781;48.776;9.200;2023-06-14T05:10:10;14.80;84.70
9486;DHT22;4781;48.776;9.200;2023-06-14T05:12:39;14.90;83.50
9486;DHT22;4781;48.776;9.200;2023-06-14T05:15:09;15.00;84.40
9486;DHT22;4781;48.776;9.200;2023-06-14T05:17:38;15.10;84.30
9486;DHT22;4781;48.776;9.200;2023-06-14T05:20:07;15.10;83.90
9486;DHT22;4781;48.776;9.200;2023-06-14T05:22:37;15.30;83.90
9486;DHT22;4781;48.776;9.200;2023-06-14T05:25:06;15.40;83.00
9486;DHT22;4781;48.776;9.200;2023-06-14T05:27:34;15.60;82.10
9486;DHT22;4781;48.776;9.200;2023-06-14T05:30:03;15.70;82.40
9486;DHT22;4781;48.776;9.200;2023-06-14T05:32:32;15.80;83.30
9486;DHT22;4781;48.776;9.200;2023-06-14T05:35:01;16.00;81.20
9486;DHT22;4781;48.776;9.200;2023-06-14T05:37:31;16.10;80.90
9486;DHT22;4781;48.776;9.200;2023-06-14T05:39:59;16.20;80.20
9486;DHT22;4781;48.776;9.200;2023-06-14T05:42:27;16.30;79.40
9486;DHT22;4781;48.776;9.200;2023-06-14T05:44:56;16.50;79.30
9486;DHT22;4781;48.776;9.200;2023-06-14T05:47:24;16.60;79.60
9486;DHT22;4781;48.776;9.200;2023-06-14T05:49:54;16.70;79.30
9486;DHT22;4781;48.776;9.200;2023-06-14T05:52:22;16.90;78.80
9486;DHT22;4781;48.776;9.200;2023-06-14T05:54:51;17.00;78.60
9486;DHT22;4781;48.776;9.200;2023-06-14T05:57:20;17.10;77.70
9486;DHT22;4781;48.776;9.200;2023-06-14T05:59:48;17.20;78.10
9486;DHT22;4781;48.776;9.200;2023-06-14T06:02:17;17.40;76.20
9486;DHT22;4781;48.776;9.200;2023-06-14T06:04:46;17.50;77.10
9486;DHT22;4781;48.776;9.200;2023-06-14T06:07:14;17.70;77.90
9486;DHT22;4781;48.776;9.200;2023-06-14T06:09:43;17.80;76.90
9486;DHT22;4781;48.776;9.200;2023-06-14T06:12:11;18.00;78.50
9486;DHT22;4781;48.776;9.200;2023-06-14T06:14:40;18.00;76.30
9486;DHT22;4781;48.776;9.200;2023-06-14T06:17:08;18.20;77.70
9486;DHT22;4781;48.776;9.200;2023-06-14T06:19:36;18.40;75.90
9486;DHT22;4781;48.776;9.200;2023-06-14T06:22:05;18.50;76.40
9486;DHT22;4781;48.776;9.200;2023-06-14T06:24:34;18.70;73.90
9486;DHT22;4781;48.776;9.200;2023-06-14T06:27:03;18.80;72.90
9486;DHT22;4781;48.776;9.200;2023-06-14T06:29:31;18.90;75.30
9486;DHT22;4781;48.776;9.200;2023-06-14T06:31:59;19.00;74.30
9486;DHT22;4781;48.776;9.200;2023-06-14T06:34:28;19.20;75.40
9486;DHT22;4781;48.776;9.200;2023-06-14T06:36:57;19.40;75.70
9486;DHT22;4781;48.776;9.200;2023-06-14T06:39:26;19.60;75.50
9486;DHT22;4781;48.776;9.200;2023-06-14T06:41:54;19.70;75.60
9486;DHT22;4781;48.776;9.200;2023-06-14T06:44:23;19.90;75.80
9486;DHT22;4781;48.776;9.200;2023-06-14T06:46:51;20.10;74.70
9486;DHT22;4781;48.776;9.200;2023-06-14T06:49:19;20.40;75.70
9486;DHT22;4781;48.776;9.200;2023-06-14T06:52:01;20.50;74.80
9486;DHT22;4781;48.776;9.200;2023-06-14T06:54:32;20.60;74.90
9486;DHT22;4781;48.776;9.200;2023-06-14T06:57:01;20.90;73.40
9486;DHT22;4781;48.776;9.200;2023-06-14T06:59:29;21.20;71.30
9486;DHT22;4781;48.776;9.200;2023-06-14T07:01:58;21.50;70.00
9486;DHT22;4781;48.776;9.200;2023-06-14T07:04:26;21.60;71.70
9486;DHT22;4781;48.776;9.200;2023-06-14T07:06:55;22.00;71.40
9486;DHT22;4781;48.776;9.200;2023-06-14T07:09:23;22.10;70.00
9486;DHT22;4781;48.776;9.200;2023-06-14T07:11:51;22.30;71.00
9486;DHT22;4781;48.776;9.200;2023-06-14T07:14:20;22.30;68.20
9486;DHT22;4781;48.776;9.200;2023-06-14T07:16:49;22.30;70.50
9486;DHT22;4781;48.776;9.200;2023-06-14T07:19:17;22.40;70.10
9486;DHT22;4781;48.776;9.200;2023-06-14T07:21:46;22.20;68.60
9486;DHT22;4781;48.776;9.200;2023-06-14T07:24:14;21.90;69.20
9486;DHT22;4781;48.776;9.200;2023-06-14T07:26:43;21.80;70.00
9486;DHT22;4781;48.776;9.200;2023-06-14T07:29:11;21.60;67.50
9486;DHT22;4781;48.776;9.200;2023-06-14T07:31:39;21.60;67.40
9486;DHT22;4781;48.776;9.200;2023-06-14T07:34:08;21.60;70.80
9486;DHT22;4781;48.776;9.200;2023-06-14T07:36:36;21.70;70.70
9486;DHT22;4781;48.776;9.200;2023-06-14T07:39:05;21.70;70.90
9486;DHT22;4781;48.776;9.200;2023-06-14T07:41:34;21.70;69.80
9486;DHT22;4781;48.776;9.200;2023-06-14T07:44:03;21.50;67.20
9486;DHT22;4781;48.776;9.200;2023-06-14T07:46:31;21.50;69.30
9486;DHT22;4781;48.776;9.200;2023-06-14T07:49:01;21.50;71.40
9486;DHT22;4781;48.776;9.200;2023-06-14T07:51:29;21.70;69.70
9486;DHT22;4781;48.776;9.200;2023-06-14T07:53:59;21.80;70.70
9486;DHT22;4781;48.776;9.200;2023-06-14T07:56:28;21.80;70.40
9486;DHT22;4781;48.776;9.200;2023-06-14T07:58:57;21.90;70.50
9486;DHT22;4781;48.776;9.200;2023-06-14T08:01:25;21.90;69.50
9486;DHT22;4781;48.776;9.200;2023-06-14T08:03:54;22.00;68.80
9486;DHT22;4781;48.776;9.200;2023-06-14T08:06:23;22.00;68.10
9486;DHT22;4781;48.776;9.200;2023-06-14T08:08:51;22.20;71.50
9486;DHT22;4781;48.776;9.200;2023-06-14T08:11:20;22.30;68.10
9486;DHT22;4781;48.776;9.200;2023-06-14T08:13:50;22.30;67.50
9486;DHT22;4781;48.776;9.200;2023-06-14T08:16:18;22.40;71.40
9486;DHT22;4781;48.776;9.200;2023-06-14T08:18:46;22.70;72.10
9486;DHT22;4781;48.776;9.200;2023-06-14T08:21:15;22.80;70.40
9486;DHT22;4781;48.776;9.200;2023-06-14T08:23:43;22.60;70.00
9486;DHT22;4781;48.776;9.200;2023-06-14T08:26:11;22.80;70.60
9486;DHT22;4781;48.776;9.200;2023-06-14T08:28:40;23.00;70.60
9486;DHT22;4781;48.776;9.200;2023-06-14T08:31:09;23.00;70.80
9486;DHT22;4781;48.776;9.200;2023-06-14T08:33:37;23.00;69.50
9486;DHT22;4781;48.776;9.200;2023-06-14T08:36:08;23.20;72.20
9486;DHT22;4781;48.776;9.200;2023-06-14T08:38:37;23.40;71.80
9486;DHT22;4781;48.776;9.200;2023-06-14T08:41:07;23.60;71.50
9486;DHT22;4781;48.776;9.200;2023-06-14T08:43:36;23.70;70.90
9486;DHT22;4781;48.776;9.200;2023-06-14T08:46:06;23.70;69.40
9486;DHT22;4781;48.776;9.200;2023-06-14T08:48:36;23.70;70.30
9486;DHT22;4781;48.776;9.200;2023-06-14T08:51:05;23.60;67.40
9486;DHT22;4781;48.776;9.200;2023-06-14T08:53:34;23.40;69.90
9486;DHT22;4781;48.776;9.200;2023-06-14T08:56:06;23.70;68.80
9486;DHT22;4781;48.776;9.200;2023-06-14T08:58:36;24.10;69.80
9486;DHT22;4781;48.776;9.200;2023-06-14T09:01:06;24.10;66.30
9486;DHT22;4781;48.776;9.200;2023-06-14T09:03:35;24.20;66.40
9486;DHT22;4781;48.776;9.200;2023-06-14T09:06:05;24.60;70.90
9486;DHT22;4781;48.776;9.200;2023-06-14T09:08:36;24.70;65.20
9486;DHT22;4781;48.776;9.200;2023-06-14T09:11:06;24.60;65.40
9486;DHT22;4781;48.776;9.200;2023-06-14T09:13:35;24.60;64.80
9486;DHT22;4781;48.776;9.200;2023-06-14T09:16:04;24.40;66.90
9486;DHT22;4781;48.776;9.200;2023-06-14T09:21:09;24.90;67.80
9486;DHT22;4781;48.776;9.200;2023-06-14T09:23:41;24.90;64.60
9486;DHT22;4781;48.776;9.200;2023-06-14T09:26:11;25.20;66.50
9486;DHT22;4781;48.776;9.200;2023-06-14T09:28:44;25.30;64.40
9486;DHT22;4781;48.776;9.200;2023-06-14T09:31:18;25.40;64.70
9486;DHT22;4781;48.776;9.200;2023-06-14T09:33:49;25.50;64.30
9486;DHT22;4781;48.776;9.200;2023-06-14T09:36:20;25.30;63.40
9486;DHT22;4781;48.776;9.200;2023-06-14T09:38:55;25.10;62.50
9486;DHT22;4781;48.776;9.200;2023-06-14T09:41:36;24.70;63.70
9486;DHT22;4781;48.776;9.200;2023-06-14T09:44:08;24.90;63.90
9486;DHT22;4781;48.776;9.200;2023-06-14T09:46:37;25.30;65.30
9486;DHT22;4781;48.776;9.200;2023-06-14T09:49:06;25.50;62.70
9486;DHT22;4781;48.776;9.200;2023-06-14T09:51:36;25.70;62.70
9486;DHT22;4781;48.776;9.200;2023-06-14T09:54:07;25.80;60.10
9486;DHT22;4781;48.776;9.200;2023-06-14T09:56:42;25.80;60.20
9486;DHT22;4781;48.776;9.200;2023-06-14T09:59:19;25.90;61.50
9486;DHT22;4781;48.776;9.200;2023-06-14T10:01:50;26.00;59.70
9486;DHT22;4781;48.776;9.200;2023-06-14T10:04:20;26.20;61.80
9486;DHT22;4781;48.776;9.200;2023-06-14T10:06:50;26.30;60.30
9486;DHT22;4781;48.776;9.200;2023-06-14T10:09:20;26.60;61.90
9486;DHT22;4781;48.776;9.200;2023-06-14T10:11:49;26.80;58.60
9486;DHT22;4781;48.776;9.200;2023-06-14T10:14:18;26.60;58.00
9486;DHT22;4781;48.776;9.200;2023-06-14T10:17:03;26.40;57.00
9486;DHT22;4781;48.776;9.200;2023-06-14T10:19:50;26.50;59.50
9486;DHT22;4781;48.776;9.200;2023-06-14T10:24:52;26.30;55.50
9486;DHT22;4781;48.776;9.200;2023-06-14T10:27:21;26.60;56.40
9486;DHT22;4781;48.776;9.200;2023-06-14T10:32:28;27.00;56.90
9486;DHT22;4781;48.776;9.200;2023-06-14T10:35:04;27.00;57.80
9486;DHT22;4781;48.776;9.200;2023-06-14T10:37:34;27.20;59.10
9486;DHT22;4781;48.776;9.200;2023-06-14T10:40:03;27.10;57.50
9486;DHT22;4781;48.776;9.200;2023-06-14T10:42:32;27.30;57.50
9486;DHT22;4781;48.776;9.200;2023-06-14T10:45:01;27.20;59.40
9486;DHT22;4781;48.776;9.200;2023-06-14T10:47:31;27.20;59.40
9486;DHT22;4781;48.776;9.200;2023-06-14T10:50:11;26.80;59.40
9486;DHT22;4781;48.776;9.200;2023-06-14T10:52:42;26.70;59.90
9486;DHT22;4781;48.776;9.200;2023-06-14T10:55:18;26.20;58.60
9486;DHT22;4781;48.776;9.200;2023-06-14T10:57:49;25.70;60.10
9486;DHT22;4781;48.776;9.200;2023-06-14T11:00:20;25.90;60.00
9486;DHT22;4781;48.776;9.200;2023-06-14T11:05:57;26.50;62.00
9486;DHT22;4781;48.776;9.200;2023-06-14T11:11:00;26.60;59.30
9486;DHT22;4781;48.776;9.200;2023-06-14T11:13:32;26.40;59.30
9486;DHT22;4781;48.776;9.200;2023-06-14T11:16:01;26.20;58.20
9486;DHT22;4781;48.776;9.200;2023-06-14T11:18:29;26.40;58.10
9486;DHT22;4781;48.776;9.200;2023-06-14T11:20:57;26.70;60.30
9486;DHT22;4781;48.776;9.200;2023-06-14T11:23:26;26.90;58.90
9486;DHT22;4781;48.776;9.200;2023-06-14T11:25:54;26.90;56.90
9486;DHT22;4781;48.776;9.200;2023-06-14T11:28:23;26.90;57.90
9486;DHT22;4781;48.776;9.200;2023-06-14T11:31:03;27.00;58.20
9486;DHT22;4781;48.776;9.200;2023-06-14T11:33:31;27.10;57.70
9486;DHT22;4781;48.776;9.200;2023-06-14T11:36:02;27.20;57.30
9486;DHT22;4781;48.776;9.200;2023-06-14T11:38:36;27.30;56.80
9486;DHT22;4781;48.776;9.200;2023-06-14T11:41:05;27.30;56.50
9486;DHT22;4781;48.776;9.200;2023-06-14T11:43:33;27.20;56.60
9486;DHT22;4781;48.776;9.200;2023-06-14T11:46:02;27.30;56.40
9486;DHT22;4781;48.776;9.200;2023-06-14T11:48:42;27.40;55.50
9486;DHT22;4781;48.776;9.200;2023-06-14T11:51:12;27.30;54.70
9486;DHT22;4781;48.776;9.200;2023-06-14T11:53:41;27.60;56.80
9486;DHT22;4781;48.776;9.200;2023-06-14T11:56:10;27.60;56.00
9486;DHT22;4781;48.776;9.200;2023-06-14T11:58:39;27.60;56.00
9486;DHT22;4781;48.776;9.200;2023-06-14T12:01:07;27.60;55.90
9486;DHT22;4781;48.776;9.200;2023-06-14T12:03:35;26.60;53.60
9486;DHT22;4781;48.776;9.200;2023-06-14T12:06:08;26.20;54.20
9486;DHT22;4781;48.776;9.200;2023-06-14T12:08:37;26.60;56.90
9486;DHT22;4781;48.776;9.200;2023-06-14T12:11:10;27.10;55.10
9486;DHT22;4781;48.776;9.200;2023-06-14T12:13:45;27.60;56.50
9486;DHT22;4781;48.776;9.200;2023-06-14T12:16:11;27.90;55.80
9486;DHT22;4781;48.776;9.200;2023-06-14T12:18:41;28.10;56.80
9486;DHT22;4781;48.776;9.200;2023-06-14T12:21:10;28.40;55.20
9486;DHT22;4781;48.776;9.200;2023-06-14T12:23:46;28.20;54.70
9486;DHT22;4781;48.776;9.200;2023-06-14T12:26:17;28.00;55.10
9486;DHT22;4781;48.776;9.200;2023-06-14T12:28:48;27.60;53.50
9486;DHT22;4781;48.776;9.200;2023-06-14T12:31:16;27.20;55.50
9486;DHT22;4781;48.776;9.200;2023-06-14T12:33:46;27.20;55.40
9486;DHT22;4781;48.776;9.200;2023-06-14T12:36:15;26.90;54.50
9486;DHT22;4781;48.776;9.200;2023-06-14T12:38:44;26.90;54.90
9486;DHT22;4781;48.776;9.200;2023-06-14T12:41:13;27.10;56.30
9486;DHT22;4781;48.776;9.200;2023-06-14T12:43:41;27.30;55.30
9486;DHT22;4781;48.776;9.200;2023-06-14T12:46:09;27.20;54.80
9486;DHT22;4781;48.776;9.200;2023-06-14T12:48:38;27.50;56.30
9486;DHT22;4781;48.776;9.200;2023-06-14T12:51:06;27.60;55.00
9486;DHT22;4781;48.776;9.200;2023-06-14T12:53:34;27.60;56.70
9486;DHT22;4781;48.776;9.200;2023-06-14T12:56:03;27.40;55.00
9486;DHT22;4781;48.776;9.200;2023-06-14T12:58:31;27.40;56.30
9486;DHT22;4781;48.776;9.200;2023-06-14T13:01:00;27.30;54.00
9486;DHT22;4781;48.776;9.200;2023-06-14T13:03:28;27.50;56.30
9486;DHT22;4781;48.776;9.200;2023-06-14T13:05:56;27.60;53.50
9486;DHT22;4781;48.776;9.200;2023-06-14T13:08:25;27.20;54.60
9486;DHT22;4781;48.776;9.200;2023-06-14T13:10:54;27.60;55.30
9486;DHT22;4781;48.776;9.200;2023-06-14T13:13:23;27.60;53.90
9486;DHT22;4781;48.776;9.200;2023-06-14T13:15:51;27.60;54.30
9486;DHT22;4781;48.776;9.200;2023-06-14T13:18:20;27.30;54.20
9486;DHT22;4781;48.776;9.200;2023-06-14T13:20:48;27.60;55.00
9486;DHT22;4781;48.776;9.200;2023-06-14T13:23:17;27.80;55.70
9486;DHT22;4781;48.776;9.200;2023-06-14T13:25:45;28.00;56.00
9486;DHT22;4781;48.776;9.200;2023-06-14T13:28:15;28.10;56.20
9486;DHT22;4781;48.776;9.200;2023-06-14T13:30:44;28.40;54.40
9486;DHT22;4781;48.776;9.200;2023-06-14T13:33:13;28.30;54.80
9486;DHT22;4781;48.776;9.200;2023-06-14T13:35:41;28.20;56.00
9486;DHT22;4781;48.776;9.200;2023-06-14T13:38:10;28.30;55.70
9486;DHT22;4781;48.776;9.200;2023-06-14T13:40:39;28.20;56.60
9486;DHT22;4781;48.776;9.200;2023-06-14T13:43:07;28.30;55.70
9486;DHT22;4781;48.776;9.200;2023-06-14T13:45:37;28.30;55.30
9486;DHT22;4781;48.776;9.200;2023-06-14T13:48:05;28.40;56.40
9486;DHT22;4781;48.776;9.200;2023-06-14T13:50:34;28.30;55.10
9486;DHT22;4781;48.776;9.200;2023-06-14T13:53:02;28.60;56.10
9486;DHT22;4781;48.776;9.200;2023-06-14T13:55:31;28.50;55.10
9486;DHT22;4781;48.776;9.200;2023-06-14T13:57:59;27.80;54.40
9486;DHT22;4781;48.776;9.200;2023-06-14T14:00:28;27.30;54.90
9486;DHT22;4781;48.776;9.200;2023-06-14T14:02:57;27.00;55.30
9486;DHT22;4781;48.776;9.200;2023-06-14T14:05:26;26.80;55.60
9486;DHT22;4781;48.776;9.200;2023-06-14T14:07:56;26.80;56.30
9486;DHT22;4781;48.776;9.200;2023-06-14T14:10:25;26.70;56.10
9486;DHT22;4781;48.776;9.200;2023-06-14T14:12:53;26.90;56.60
9486;DHT22;4781;48.776;9.200;2023-06-14T14:15:23;27.20;57.30
9486;DHT22;4781;48.776;9.200;2023-06-14T14:17:51;27.30;56.50
9486;DHT22;4781;48.776;9.200;2023-06-14T14:20:21;27.50;56.80
9486;DHT22;4781;48.776;9.200;2023-06-14T14:22:49;27.50;56.30
9486;DHT22;4781;48.776;9.200;2023-06-14T14:25:17;27.60;55.70
9486;DHT22;4781;48.776;9.200;2023-06-14T14:27:46;27.70;56.00
9486;DHT22;4781;48.776;9.200;2023-06-14T14:30:14;27.70;56.80
9486;DHT22;4781;48.776;9.200;2023-06-14T14:32:43;27.60;56.40
9486;DHT22;4781;48.776;9.200;2023-06-14T14:35:12;27.40;56.40
9486;DHT22;4781;48.776;9.200;2023-06-14T14:37:40;27.50;57.00
9486;DHT22;4781;48.776;9.200;2023-06-14T14:40:09;27.70;58.70
9486;DHT22;4781;48.776;9.200;2023-06-14T14:42:38;27.90;56.50
9486;DHT22;4781;48.776;9.200;2023-06-14T14:45:07;27.80;56.60
9486;DHT22;4781;48.776;9.200;2023-06-14T14:47:36;27.60;54.90
9486;DHT22;4781;48.776;9.200;2023-06-14T14:50:05;27.60;57.30
9486;DHT22;4781;48.776;9.200;2023-06-14T14:52:35;27.50;56.80
9486;DHT22;4781;48.776;9.200;2023-06-14T14:55:04;27.60;56.90
9486;DHT22;4781;48.776;9.200;2023-06-14T14:57:33;27.60;56.60
9486;DHT22;4781;48.776;9.200;2023-06-14T15:00:04;27.70;56.40
9486;DHT22;4781;48.776;9.200;2023-06-14T15:02:33;27.70;55.00
9486;DHT22;4781;48.776;9.200;2023-06-14T15:05:01;27.50;54.70
9486;DHT22;4781;48.776;9.200;2023-06-14T15:07:31;27.40;54.60
9486;DHT22;4781;48.776;9.200;2023-06-14T15:10:01;27.20;56.60
9486;DHT22;4781;48.776;9.200;2023-06-14T15:12:31;27.30;55.60
9486;DHT22;4781;48.776;9.200;2023-06-14T15:14:59;27.50;56.30
9486;DHT22;4781;48.776;9.200;2023-06-14T15:17:27;27.40;56.30
9486;DHT22;4781;48.776;9.200;2023-06-14T15:19:56;27.30;56.40
9486;DHT22;4781;48.776;9.200;2023-06-14T15:22:24;27.30;56.70
9486;DHT22;4781;48.776;9.200;2023-06-14T15:24:53;27.30;55.80
9486;DHT22;4781;48.776;9.200;2023-06-14T15:27:21;27.20;57.40
9486;DHT22;4781;48.776;9.200;2023-06-14T15:29:49;27.20;56.00
9486;DHT22;4781;48.776;9.200;2023-06-14T15:32:18;27.30;56.00
9486;DHT22;4781;48.776;9.200;2023-06-14T15:34:47;27.20;55.90
9486;DHT22;4781;48.776;9.200;2023-06-14T15:37:16;27.20;56.20
9486;DHT22;4781;48.776;9.200;2023-06-14T15:39:44;27.10;55.70
9486;DHT22;4781;48.776;9.200;2023-06-14T15:42:12;27.00;55.80
9486;DHT22;4781;48.776;9.200;2023-06-14T15:44:41;26.90;56.60
9486;DHT22;4781;48.776;9.200;2023-06-14T15:47:09;26.80;56.10
9486;DHT22;4781;48.776;9.200;2023-06-14T15:49:37;26.90;57.70
9486;DHT22;4781;48.776;9.200;2023-06-14T15:52:06;26.90;56.60
9486;DHT22;4781;48.776;9.200;2023-06-14T15:54:35;26.50;56.20
9486;DHT22;4781;48.776;9.200;2023-06-14T15:57:03;26.50;56.90
9486;DHT22;4781;48.776;9.200;2023-06-14T15:59:32;26.50;56.90
9486;DHT22;4781;48.776;9.200;2023-06-14T16:02:00;26.40;56.40
9486;DHT22;4781;48.776;9.200;2023-06-14T16:04:29;26.30;56.50
9486;DHT22;4781;48.776;9.200;2023-06-14T16:06:57;26.30;56.60
9486;DHT22;4781;48.776;9.200;2023-06-14T16:09:25;26.20;56.30
9486;DHT22;4781;48.776;9.200;2023-06-14T16:11:54;26.10;56.90
9486;DHT22;4781;48.776;9.200;2023-06-14T16:14:23;26.00;56.80
9486;DHT22;4781;48.776;9.200;2023-06-14T16:16:52;26.00;56.60
9486;DHT22;4781;48.776;9.200;2023-06-14T16:19:20;25.90;55.60
9486;DHT22;4781;48.776;9.200;2023-06-14T16:21:48;25.70;55.90
9486;DHT22;4781;48.776;9.200;2023-06-14T16:24:17;25.60;56.90
9486;DHT22;4781;48.776;9.200;2023-06-14T16:26:45;25.70;57.20
9486;DHT22;4781;48.776;9.200;2023-06-14T16:29:14;25.70;57.10
9486;DHT22;4781;48.776;9.200;2023-06-14T16:31:42;25.60;57.00
9486;DHT22;4781;48.776;9.200;2023-06-14T16:34:10;25.50;57.00